Time;durP1;ratioP1;P1;durP2;ratioP2;P2;SDS_P1;SDS_P2;PMS_P1;PMS_P2;Temp;Humidity;BMP_temperature;BMP_pressure;BME280_temperature;BME280_humidity;BME280_pressure;Samples;Min_cycle;Max_cycle;Signal;HPM_P1;HPM_P2
2023/06/29 00:01:05;;;;;;;;;;;22.90;99.90;;;;;;4590552;19;19914;-20
2023/06/29 00:02:56;;;;;;;;;;;22.90;99.90;;;;;;4589480;19;20264;-27
2023/06/29 00:04:29;;;;;;;;;;;22.90;99.90;;;;;;4590155;19;20446;-24
2023/06/29 00:06:01;;;;;;;;;;;22.90;99.90;;;;;;4590485;19;20341;-28
2023/06/29 00:07:33;;;;;;;;;;;22.90;99.90;;;;;;4589954;19;19922;-22
2023/06/29 00:09:07;;;;;;;;;;;22.90;99.90;;;;;;4589958;19;19926;-26
2023/06/29 00:10:40;;;;;;;;;;;22.90;99.90;;;;;;4591069;19;19925;-23
2023/06/29 00:12:11;;;;;;;;;;;22.90;99.90;;;;;;4589854;19;19982;-24
2023/06/29 00:13:42;;;;;;;;;;;22.90;99.90;;;;;;4589863;19;19929;-29
2023/06/29 00:15:13;;;;;;;;;;;22.80;99.90;;;;;;4593357;19;19921;-22
2023/06/29 00:16:44;;;;;;;;;;;22.80;99.90;;;;;;4596492;19;19925;-28
2023/06/29 00:18:15;;;;;;;;;;;22.90;99.90;;;;;;4595439;19;19923;-22
2023/06/29 00:19:49;;;;;;;;;;;22.80;99.90;;;;;;4595461;19;19921;-27
2023/06/29 00:21:20;;;;;;;;;;;22.80;99.90;;;;;;4593070;19;20333;-26
2023/06/29 00:22:51;;;;;;;;;;;22.80;99.90;;;;;;4595398;19;19915;-23
2023/06/29 00:24:22;;;;;;;;;;;22.80;99.90;;;;;;4594318;19;19974;-21
2023/06/29 00:25:56;;;;;;;;;;;22.80;99.90;;;;;;4594333;19;19915;-23
2023/06/29 00:27:27;;;;;;;;;;;22.80;99.90;;;;;;4594901;19;19922;-25
2023/06/29 00:28:58;;;;;;;;;;;22.80;99.90;;;;;;4596372;19;19919;-28
2023/06/29 00:30:29;;;;;;;;;;;22.80;99.90;;;;;;4595199;19;19907;-28
2023/06/29 00:32:00;;;;;;;;;;;22.80;99.90;;;;;;4595782;19;19919;-30
2023/06/29 00:33:31;;;;;;;;;;;22.80;99.90;;;;;;4595710;19;19915;-27
2023/06/29 00:35:03;;;;;;;;;;;22.80;99.90;;;;;;4594366;19;19922;-27
2023/06/29 00:36:34;;;;;;;;;;;22.70;99.90;;;;;;4594975;19;20333;-30
2023/06/29 00:38:05;;;;;;;;;;;22.80;99.90;;;;;;4595731;19;20259;-23
2023/06/29 00:39:36;;;;;;;;;;;22.70;99.90;;;;;;4595441;19;19918;-23
2023/06/29 00:41:08;;;;;;;;;;;22.70;99.90;;;;;;4594071;19;19955;-27
2023/06/29 00:42:39;;;;;;;;;;;22.70;99.90;;;;;;4594680;19;19910;-23
2023/06/29 00:44:11;;;;;;;;;;;22.70;99.90;;;;;;4595239;19;19919;-22
2023/06/29 00:45:45;;;;;;;;;;;22.70;99.90;;;;;;4594498;19;19925;-22
2023/06/29 00:47:16;;;;;;;;;;;22.70;99.90;;;;;;4594682;19;19919;-22
2023/06/29 00:48:47;;;;;;;;;;;22.70;99.90;;;;;;4594064;19;19970;-26
2023/06/29 00:50:21;;;;;;;;;;;22.70;99.90;;;;;;4594184;19;19953;-23
2023/06/29 00:51:52;;;;;;;;;;;22.70;99.90;;;;;;4595058;19;19925;-26
2023/06/29 00:53:26;;;;;;;;;;;22.70;99.90;;;;;;4593746;19;19949;-24
2023/06/29 00:54:57;;;;;;;;;;;22.70;99.90;;;;;;4593543;19;20320;-24
2023/06/29 00:56:30;;;;;;;;;;;22.60;99.90;;;;;;4594826;19;19921;-26
2023/06/29 00:58:01;;;;;;;;;;;22.70;99.90;;;;;;4594476;19;19936;-25
2023/06/29 00:59:32;;;;;;;;;;;22.60;99.90;;;;;;4593739;19;20336;-23
2023/06/29 01:01:04;;;;;;;;;;;22.60;99.90;;;;;;4592793;19;19915;-27
2023/06/29 01:02:40;;;;;;;;;;;22.60;99.90;;;;;;4593425;19;19915;-22
2023/06/29 01:04:22;;;;;;;;;;;22.60;99.90;;;;;;4594441;19;19918;-23
2023/06/29 01:05:55;;;;;;;;;;;22.60;99.90;;;;;;4592509;19;20313;-23
2023/06/29 01:07:46;;;;;;;;;;;22.60;99.90;;;;;;4592798;19;19922;-22
2023/06/29 01:09:18;;;;;;;;;;;22.60;99.90;;;;;;4592265;19;19918;-23
2023/06/29 01:10:49;;;;;;;;;;;22.60;99.90;;;;;;4592416;19;20335;-23
2023/06/29 01:12:20;;;;;;;;;;;22.60;99.90;;;;;;4592318;19;19975;-28
2023/06/29 01:13:51;;;;;;;;;;;22.60;99.90;;;;;;4592148;19;19919;-22
2023/06/29 01:15:22;;;;;;;;;;;22.60;99.90;;;;;;4591542;19;19934;-26
2023/06/29 01:16:59;;;;;;;;;;;22.60;99.90;;;;;;4592669;19;19929;-25
2023/06/29 01:18:31;;;;;;;;;;;22.60;99.90;;;;;;4591985;19;20333;-23
2023/06/29 01:20:02;;;;;;;;;;;22.60;99.90;;;;;;4592136;19;19923;-25
2023/06/29 01:21:34;;;;;;;;;;;22.60;99.90;;;;;;4592158;19;20313;-22
2023/06/29 01:23:10;;;;;;;;;;;22.60;99.90;;;;;;4592778;19;19946;-23
2023/06/29 01:24:42;;;;;;;;;;;22.60;99.90;;;;;;4591881;19;20238;-23
2023/06/29 01:26:14;;;;;;;;;;;22.50;99.90;;;;;;4590936;19;19929;-26
2023/06/29 01:27:45;;;;;;;;;;;22.60;99.90;;;;;;4591912;19;19986;-26
2023/06/29 01:29:24;;;;;;;;;;;22.60;99.90;;;;;;4592510;19;20283;-22
2023/06/29 01:30:55;;;;;;;;;;;22.50;99.90;;;;;;4591948;19;19915;-24
2023/06/29 01:32:33;;;;;;;;;;;22.60;99.90;;;;;;4592321;19;19923;-25
2023/06/29 01:34:04;;;;;;;;;;;22.60;99.90;;;;;;4591813;19;19911;-26
2023/06/29 01:35:35;;;;;;;;;;;22.60;99.90;;;;;;4591510;19;20329;-23
2023/06/29 01:37:11;;;;;;;;;;;22.50;99.90;;;;;;4591630;19;20042;-24
2023/06/29 01:38:47;;;;;;;;;;;22.50;99.90;;;;;;4591658;19;19918;-25
2023/06/29 01:40:19;;;;;;;;;;;22.60;99.90;;;;;;4592274;19;19910;-23
2023/06/29 01:41:52;;;;;;;;;;;22.50;99.90;;;;;;4592034;19;19922;-24
2023/06/29 01:43:24;;;;;;;;;;;22.50;99.90;;;;;;4591667;19;19915;-26
2023/06/29 01:44:58;;;;;;;;;;;22.50;99.90;;;;;;4591803;19;19915;-26
2023/06/29 01:46:29;;;;;;;;;;;22.60;99.90;;;;;;4591366;19;19918;-24
2023/06/29 01:48:00;;;;;;;;;;;22.50;99.90;;;;;;4593446;19;19938;-25
2023/06/29 01:49:31;;;;;;;;;;;22.50;99.90;;;;;;4593449;19;19935;-23
2023/06/29 01:51:04;;;;;;;;;;;22.50;99.90;;;;;;4592843;19;19919;-24
2023/06/29 01:52:35;;;;;;;;;;;22.50;99.90;;;;;;4592906;19;20324;-25
2023/06/29 01:54:08;;;;;;;;;;;22.50;99.90;;;;;;4593787;19;20252;-22
2023/06/29 01:55:39;;;;;;;;;;;22.50;99.90;;;;;;4592692;19;19919;-23
2023/06/29 01:57:12;;;;;;;;;;;22.50;99.90;;;;;;4594105;19;19918;-26
2023/06/29 01:58:43;;;;;;;;;;;22.50;99.90;;;;;;4593814;19;20253;-28
2023/06/29 02:00:16;;;;;;;;;;;22.50;99.90;;;;;;4592625;19;20340;-24
2023/06/29 02:01:47;;;;;;;;;;;22.50;99.90;;;;;;4592334;19;19936;-24
2023/06/29 02:03:19;;;;;;;;;;;22.50;99.90;;;;;;4594007;19;19923;-24
2023/06/29 02:04:51;;;;;;;;;;;22.50;99.90;;;;;;4594153;19;19939;-23
2023/06/29 02:06:22;;;;;;;;;;;22.50;99.90;;;;;;4593163;19;19911;-23
2023/06/29 02:07:53;;;;;;;;;;;22.50;99.90;;;;;;4592514;19;20228;-24
2023/06/29 02:09:24;;;;;;;;;;;22.50;99.90;;;;;;4592706;19;19926;-24
2023/06/29 02:10:55;;;;;;;;;;;22.50;99.90;;;;;;4593761;19;20251;-25
2023/06/29 02:12:26;;;;;;;;;;;22.50;99.90;;;;;;4593198;19;19951;-24
2023/06/29 02:13:57;;;;;;;;;;;22.50;99.90;;;;;;4592593;19;20424;-22
2023/06/29 02:15:29;;;;;;;;;;;22.50;99.90;;;;;;4592300;19;19918;-22
2023/06/29 02:17:01;;;;;;;;;;;22.50;99.90;;;;;;4592214;19;19936;-23
2023/06/29 02:18:32;;;;;;;;;;;22.50;99.90;;;;;;4592767;19;19918;-23
2023/06/29 02:20:03;;;;;;;;;;;22.50;99.90;;;;;;4592415;19;20404;-29
2023/06/29 02:21:35;;;;;;;;;;;22.50;99.90;;;;;;4592794;19;20249;-27
2023/06/29 02:23:06;;;;;;;;;;;22.50;99.90;;;;;;4592696;19;19915;-24
2023/06/29 02:24:37;;;;;;;;;;;22.50;99.90;;;;;;4593313;19;19921;-23
2023/06/29 02:26:08;;;;;;;;;;;22.50;99.90;;;;;;4592162;19;19911;-28
2023/06/29 02:27:39;;;;;;;;;;;22.50;99.90;;;;;;4592400;19;19974;-27
2023/06/29 02:29:10;;;;;;;;;;;22.50;99.90;;;;;;4592513;19;19930;-29
2023/06/29 02:30:41;;;;;;;;;;;22.50;99.90;;;;;;4593250;19;19926;-22
2023/06/29 02:32:13;;;;;;;;;;;22.50;99.90;;;;;;4593612;19;19923;-28
2023/06/29 02:33:44;;;;;;;;;;;22.50;99.90;;;;;;4593861;19;19914;-23
2023/06/29 02:35:15;;;;;;;;;;;22.50;99.90;;;;;;4592610;19;19918;-24
2023/06/29 02:36:47;;;;;;;;;;;22.50;99.90;;;;;;4591649;19;19923;-23
2023/06/29 02:38:18;;;;;;;;;;;22.50;99.90;;;;;;4592132;19;19926;-28
2023/06/29 02:39:50;;;;;;;;;;;22.50;99.90;;;;;;4593045;19;19915;-23
2023/06/29 02:41:21;;;;;;;;;;;22.50;99.90;;;;;;4592960;19;19922;-24
2023/06/29 02:42:52;;;;;;;;;;;22.50;99.90;;;;;;4593176;19;19918;-22
2023/06/29 02:44:23;;;;;;;;;;;22.50;99.90;;;;;;4592323;19;19923;-27
2023/06/29 02:45:55;;;;;;;;;;;22.50;99.90;;;;;;4591581;19;19954;-22
2023/06/29 02:47:27;;;;;;;;;;;22.50;99.90;;;;;;4591730;19;19910;-22
2023/06/29 02:48:58;;;;;;;;;;;22.50;99.90;;;;;;4592016;19;20286;-22
2023/06/29 02:50:29;;;;;;;;;;;22.50;99.90;;;;;;4592309;19;19929;-25
2023/06/29 02:52:00;;;;;;;;;;;22.50;99.90;;;;;;4591516;19;20290;-26
2023/06/29 02:53:31;;;;;;;;;;;22.50;99.90;;;;;;4592332;19;19978;-25
2023/06/29 02:55:02;;;;;;;;;;;22.50;99.90;;;;;;4592540;19;19926;-25
2023/06/29 02:56:34;;;;;;;;;;;22.50;99.90;;;;;;4591295;19;20297;-25
2023/06/29 02:58:04;;;;;;;;;;;22.50;99.90;;;;;;4591818;19;19921;-27
2023/06/29 02:59:36;;;;;;;;;;;22.50;99.90;;;;;;4593012;19;19948;-23
2023/06/29 03:01:07;;;;;;;;;;;22.50;99.90;;;;;;4591447;19;20939;-24
2023/06/29 03:02:38;;;;;;;;;;;22.50;99.90;;;;;;4591947;19;19923;-27
2023/06/29 03:04:09;;;;;;;;;;;22.50;99.90;;;;;;4592311;19;19970;-25
2023/06/29 03:05:41;;;;;;;;;;;22.50;99.90;;;;;;4592006;19;20237;-29
2023/06/29 03:07:13;;;;;;;;;;;22.50;99.90;;;;;;4592496;19;19931;-28
2023/06/29 03:08:44;;;;;;;;;;;22.50;99.90;;;;;;4592166;19;19918;-23
2023/06/29 03:10:15;;;;;;;;;;;22.40;99.90;;;;;;4592131;19;19914;-25
2023/06/29 03:11:46;;;;;;;;;;;22.50;99.90;;;;;;4592640;19;20243;-23
2023/06/29 03:13:17;;;;;;;;;;;22.50;99.90;;;;;;4591756;19;20325;-24
2023/06/29 03:14:48;;;;;;;;;;;22.50;99.90;;;;;;4590931;19;19915;-24
2023/06/29 03:16:19;;;;;;;;;;;22.40;99.90;;;;;;4591121;19;19922;-25
2023/06/29 03:17:51;;;;;;;;;;;22.40;99.90;;;;;;4592244;19;19974;-26
2023/06/29 03:19:22;;;;;;;;;;;22.50;99.90;;;;;;4590572;19;20245;-23
2023/06/29 03:20:54;;;;;;;;;;;22.50;99.90;;;;;;4591027;19;19915;-23
2023/06/29 03:22:26;;;;;;;;;;;22.40;99.90;;;;;;4591768;19;19918;-23
2023/06/29 03:23:57;;;;;;;;;;;22.40;99.90;;;;;;4592559;19;19982;-21
2023/06/29 03:25:28;;;;;;;;;;;22.40;99.90;;;;;;4590314;19;19915;-26
2023/06/29 03:26:59;;;;;;;;;;;22.40;99.90;;;;;;4591387;19;19918;-23
2023/06/29 03:28:30;;;;;;;;;;;22.40;99.90;;;;;;4592353;19;20229;-29
2023/06/29 03:30:01;;;;;;;;;;;22.50;99.90;;;;;;4591481;19;19928;-26
2023/06/29 03:31:32;;;;;;;;;;;22.50;99.90;;;;;;4590760;19;19953;-27
2023/06/29 03:33:04;;;;;;;;;;;22.50;99.90;;;;;;4591318;19;19922;-24
2023/06/29 03:34:34;;;;;;;;;;;22.50;99.90;;;;;;4591003;19;19936;-23
2023/06/29 03:36:09;;;;;;;;;;;22.50;99.90;;;;;;4590378;19;19948;-25
2023/06/29 03:37:40;;;;;;;;;;;22.50;99.90;;;;;;4591851;19;20318;-23
2023/06/29 03:39:11;;;;;;;;;;;22.50;99.90;;;;;;4592023;19;19937;-28
2023/06/29 03:40:42;;;;;;;;;;;22.50;99.90;;;;;;4591681;19;19922;-23
2023/06/29 03:42:13;;;;;;;;;;;22.50;99.90;;;;;;4590511;19;19914;-25
2023/06/29 03:43:44;;;;;;;;;;;22.50;99.90;;;;;;4591914;19;19915;-24
2023/06/29 03:45:15;;;;;;;;;;;22.50;99.90;;;;;;4591523;19;19955;-24
2023/06/29 03:46:47;;;;;;;;;;;22.50;99.90;;;;;;4590515;19;19949;-25
2023/06/29 03:48:20;;;;;;;;;;;22.60;99.90;;;;;;4589984;19;19923;-23
2023/06/29 03:49:52;;;;;;;;;;;22.70;99.90;;;;;;4587763;19;19941;-24
2023/06/29 03:51:23;;;;;;;;;;;22.80;99.90;;;;;;4590973;19;19918;-27
2023/06/29 03:52:53;;;;;;;;;;;23.00;99.90;;;;;;4591557;19;20336;-26
2023/06/29 03:54:26;;;;;;;;;;;23.20;99.90;;;;;;4591441;19;19921;-24
2023/06/29 03:55:59;;;;;;;;;;;23.40;99.90;;;;;;4590899;19;19941;-24
2023/06/29 03:57:30;;;;;;;;;;;23.60;99.90;;;;;;4590484;19;19923;-24
2023/06/29 03:59:02;;;;;;;;;;;23.70;99.90;;;;;;4590820;19;19936;-23
2023/06/29 04:00:33;;;;;;;;;;;23.80;99.90;;;;;;4591400;19;19946;-25
2023/06/29 04:02:04;;;;;;;;;;;23.90;99.90;;;;;;4590215;19;19927;-24
2023/06/29 04:03:35;;;;;;;;;;;24.00;99.90;;;;;;4591333;19;19916;-23
2023/06/29 04:05:06;;;;;;;;;;;24.00;99.90;;;;;;4591117;19;20333;-28
2023/06/29 04:06:37;;;;;;;;;;;24.10;99.90;;;;;;4591428;19;19995;-26
2023/06/29 04:08:09;;;;;;;;;;;24.10;99.90;;;;;;4591190;19;20300;-24
2023/06/29 04:09:40;;;;;;;;;;;24.10;99.90;;;;;;4591297;19;19925;-27
2023/06/29 04:11:12;;;;;;;;;;;24.10;99.90;;;;;;4590490;19;19911;-28
2023/06/29 04:12:45;;;;;;;;;;;24.10;99.90;;;;;;4590337;19;19948;-24
2023/06/29 04:14:16;;;;;;;;;;;24.10;99.90;;;;;;4591737;19;19935;-22
2023/06/29 04:15:47;;;;;;;;;;;24.00;99.90;;;;;;4589525;19;19918;-24
2023/06/29 04:17:18;;;;;;;;;;;24.00;99.90;;;;;;4590524;19;20062;-24
2023/06/29 04:18:51;;;;;;;;;;;24.00;99.90;;;;;;4590996;19;19945;-22
2023/06/29 04:20:24;;;;;;;;;;;23.90;99.90;;;;;;4591196;19;20327;-28
2023/06/29 04:21:55;;;;;;;;;;;23.80;99.90;;;;;;4589598;19;19978;-27
2023/06/29 04:23:26;;;;;;;;;;;23.80;99.90;;;;;;4588456;19;19915;-24
2023/06/29 04:24:57;;;;;;;;;;;23.70;99.90;;;;;;4590778;19;19980;-28
2023/06/29 04:26:28;;;;;;;;;;;23.70;99.90;;;;;;4590278;19;19978;-27
2023/06/29 04:28:00;;;;;;;;;;;23.70;99.90;;;;;;4590520;19;20332;-23
2023/06/29 04:29:30;;;;;;;;;;;23.60;99.90;;;;;;4589620;19;19919;-23
2023/06/29 04:31:02;;;;;;;;;;;23.50;99.90;;;;;;4589508;19;19920;-28
2023/06/29 04:32:33;;;;;;;;;;;23.40;99.90;;;;;;4590017;19;19918;-29
2023/06/29 04:34:04;;;;;;;;;;;23.40;99.90;;;;;;4590488;19;20339;-23
2023/06/29 04:35:42;;;;;;;;;;;23.30;99.90;;;;;;4590132;19;20262;-23
2023/06/29 04:37:13;;;;;;;;;;;23.30;99.90;;;;;;4587763;19;20383;-26
2023/06/29 04:38:45;;;;;;;;;;;23.30;99.90;;;;;;4589820;19;19939;-26
2023/06/29 04:40:17;;;;;;;;;;;23.40;99.90;;;;;;4590059;19;20269;-24
2023/06/29 04:41:48;;;;;;;;;;;23.40;99.90;;;;;;4590663;19;20351;-24
2023/06/29 04:43:21;;;;;;;;;;;23.50;99.90;;;;;;4590341;19;20233;-24
2023/06/29 04:44:55;;;;;;;;;;;23.60;99.90;;;;;;4589939;19;19939;-23
2023/06/29 04:46:27;;;;;;;;;;;23.60;99.90;;;;;;4589684;19;19915;-24
2023/06/29 04:47:59;;;;;;;;;;;23.70;99.90;;;;;;4589084;19;19915;-23
2023/06/29 04:49:39;;;;;;;;;;;23.70;99.90;;;;;;4590383;19;19939;-24
2023/06/29 04:51:12;;;;;;;;;;;23.80;99.90;;;;;;4590569;19;19951;-28
2023/06/29 04:52:43;;;;;;;;;;;23.90;99.90;;;;;;4590223;19;20299;-29
2023/06/29 04:54:15;;;;;;;;;;;23.90;99.90;;;;;;4590278;19;20002;-29
2023/06/29 04:55:46;;;;;;;;;;;24.10;99.90;;;;;;4587641;19;20252;-26
2023/06/29 04:57:17;;;;;;;;;;;24.10;99.90;;;;;;4587738;19;19974;-27
2023/06/29 04:58:48;;;;;;;;;;;24.10;99.90;;;;;;4588321;19;19918;-25
2023/06/29 05:00:20;;;;;;;;;;;24.20;99.90;;;;;;4588471;19;19924;-22
2023/06/29 05:01:51;;;;;;;;;;;24.30;99.90;;;;;;4591657;19;19926;-24
2023/06/29 05:03:23;;;;;;;;;;;24.30;99.90;;;;;;4591102;19;20258;-23
2023/06/29 05:04:54;;;;;;;;;;;24.40;99.90;;;;;;4592673;19;19915;-23
2023/06/29 05:06:25;;;;;;;;;;;24.40;99.90;;;;;;4592285;19;19934;-26
2023/06/29 05:07:56;;;;;;;;;;;24.40;99.90;;;;;;4591870;19;19942;-24
2023/06/29 05:09:27;;;;;;;;;;;24.50;99.90;;;;;;4591474;19;19918;-24
2023/06/29 05:10:58;;;;;;;;;;;24.50;99.90;;;;;;4591018;19;20328;-30
2023/06/29 05:12:29;;;;;;;;;;;24.50;99.90;;;;;;4589864;19;20621;-24
2023/06/29 05:14:00;;;;;;;;;;;24.40;99.90;;;;;;4589953;19;19907;-29
2023/06/29 05:15:32;;;;;;;;;;;24.40;99.90;;;;;;4589837;19;19998;-22
2023/06/29 05:17:04;;;;;;;;;;;24.40;99.90;;;;;;4592717;19;19911;-23
2023/06/29 05:18:36;;;;;;;;;;;24.40;99.90;;;;;;4591449;19;19937;-23
2023/06/29 05:20:08;;;;;;;;;;;24.40;99.90;;;;;;4590583;19;19934;-23
2023/06/29 05:21:40;;;;;;;;;;;24.40;99.90;;;;;;4590250;19;20016;-22
2023/06/29 05:23:11;;;;;;;;;;;24.40;99.90;;;;;;4590024;19;20257;-23
2023/06/29 05:24:42;;;;;;;;;;;24.30;99.90;;;;;;4593403;19;20265;-24
2023/06/29 05:26:14;;;;;;;;;;;24.30;99.90;;;;;;4591467;19;20336;-22
2023/06/29 05:27:46;;;;;;;;;;;24.30;99.90;;;;;;4592810;19;19911;-26
2023/06/29 05:29:17;;;;;;;;;;;24.30;99.90;;;;;;4592929;19;20330;-28
2023/06/29 05:30:49;;;;;;;;;;;24.20;99.90;;;;;;4593682;19;20316;-25
2023/06/29 05:32:20;;;;;;;;;;;24.20;99.90;;;;;;4590256;19;19921;-25
2023/06/29 05:33:51;;;;;;;;;;;24.20;99.90;;;;;;4592406;19;19922;-27
2023/06/29 05:35:22;;;;;;;;;;;24.20;99.90;;;;;;4592607;19;19919;-25
2023/06/29 05:36:53;;;;;;;;;;;24.20;99.90;;;;;;4590872;19;19922;-24
2023/06/29 05:38:25;;;;;;;;;;;24.20;99.90;;;;;;4591826;19;19914;-22
2023/06/29 05:39:57;;;;;;;;;;;24.10;99.90;;;;;;4594663;19;19929;-25
2023/06/29 05:41:28;;;;;;;;;;;24.10;99.90;;;;;;4594398;19;19923;-23
2023/06/29 05:42:59;;;;;;;;;;;24.00;99.90;;;;;;4592010;19;20250;-23
2023/06/29 05:44:30;;;;;;;;;;;24.00;99.90;;;;;;4593378;19;19919;-22
2023/06/29 05:46:01;;;;;;;;;;;24.00;99.90;;;;;;4593114;19;19930;-27
2023/06/29 05:47:32;;;;;;;;;;;24.00;99.90;;;;;;4593151;19;19966;-23
2023/06/29 05:49:03;;;;;;;;;;;24.00;99.90;;;;;;4592200;19;19954;-23
2023/06/29 05:50:34;;;;;;;;;;;24.00;99.90;;;;;;4591966;19;19933;-23
2023/06/29 05:52:05;;;;;;;;;;;23.90;99.90;;;;;;4590534;19;20259;-24
2023/06/29 05:53:36;;;;;;;;;;;23.90;99.90;;;;;;4593182;19;19997;-24
2023/06/29 05:55:07;;;;;;;;;;;23.90;99.90;;;;;;4593581;19;19914;-23
2023/06/29 05:56:39;;;;;;;;;;;23.90;99.90;;;;;;4592505;19;19919;-22
2023/06/29 05:58:10;;;;;;;;;;;23.90;99.90;;;;;;4592725;19;19970;-23
2023/06/29 05:59:42;;;;;;;;;;;24.00;99.90;;;;;;4591667;19;20325;-24
2023/06/29 06:01:13;;;;;;;;;;;24.00;99.90;;;;;;4588722;19;19946;-26
2023/06/29 06:02:45;;;;;;;;;;;24.00;99.90;;;;;;4593956;19;20344;-29
2023/06/29 06:04:16;;;;;;;;;;;24.10;99.90;;;;;;4594479;19;19915;-23
2023/06/29 06:05:47;;;;;;;;;;;24.10;99.90;;;;;;4593408;19;19926;-23
2023/06/29 06:07:31;;;;;;;;;;;24.10;99.90;;;;;;4593054;19;19990;-27
2023/06/29 06:09:02;;;;;;;;;;;24.10;99.90;;;;;;4592411;19;19948;-24
2023/06/29 06:10:33;;;;;;;;;;;24.10;99.90;;;;;;4592131;19;20328;-28
2023/06/29 06:12:05;;;;;;;;;;;24.10;99.90;;;;;;4590112;19;19919;-26
2023/06/29 06:13:36;;;;;;;;;;;24.20;99.90;;;;;;4592107;19;20346;-23
2023/06/29 06:15:11;;;;;;;;;;;24.30;99.90;;;;;;4590889;19;19918;-22
2023/06/29 06:16:42;;;;;;;;;;;24.30;99.90;;;;;;4589991;19;19923;-24
2023/06/29 06:18:13;;;;;;;;;;;24.30;99.90;;;;;;4590938;19;19919;-24
2023/06/29 06:19:45;;;;;;;;;;;24.40;99.90;;;;;;4594408;19;20261;-24
2023/06/29 06:21:17;;;;;;;;;;;24.40;99.90;;;;;;4591998;19;19926;-24
2023/06/29 06:22:48;;;;;;;;;;;24.40;99.90;;;;;;4593168;19;20139;-23
2023/06/29 06:24:18;;;;;;;;;;;24.30;99.90;;;;;;4591892;19;19919;-26
2023/06/29 06:25:50;;;;;;;;;;;24.40;99.90;;;;;;4592312;19;19922;-21
2023/06/29 06:27:21;;;;;;;;;;;24.30;99.90;;;;;;4593690;19;19910;-23
2023/06/29 06:28:52;;;;;;;;;;;24.30;99.90;;;;;;4591323;19;19914;-23
2023/06/29 06:30:25;;;;;;;;;;;24.30;99.90;;;;;;4592943;19;19922;-24
2023/06/29 06:31:56;;;;;;;;;;;24.20;99.90;;;;;;4592033;19;19950;-23
2023/06/29 06:33:30;;;;;;;;;;;24.10;99.90;;;;;;4593017;19;19915;-26
2023/06/29 06:35:04;;;;;;;;;;;24.00;99.90;;;;;;4591819;19;19923;-23
2023/06/29 06:36:35;;;;;;;;;;;23.90;99.90;;;;;;4591056;19;19982;-23
2023/06/29 06:38:06;;;;;;;;;;;23.90;99.90;;;;;;4592090;19;19978;-25
2023/06/29 06:39:38;;;;;;;;;;;23.90;99.90;;;;;;4593166;19;19927;-25
2023/06/29 06:41:09;;;;;;;;;;;23.90;99.90;;;;;;4592523;19;19907;-25
2023/06/29 06:42:40;;;;;;;;;;;23.80;99.90;;;;;;4591312;19;20324;-25
2023/06/29 06:44:12;;;;;;;;;;;23.70;99.90;;;;;;4592895;19;19929;-23
2023/06/29 06:45:45;;;;;;;;;;;23.70;99.90;;;;;;4591712;19;19959;-23
2023/06/29 07:18:17;;;;;;;;;;;23.50;99.90;;;;;;4587986;19;19910;-23
2023/06/29 07:19:49;;;;;;;;;;;23.50;99.90;;;;;;4591519;19;19925;-25
2023/06/29 07:21:20;;;;;;;;;;;23.50;99.90;;;;;;4591585;19;20394;-22
2023/06/29 07:22:51;;;;;;;;;;;23.50;99.90;;;;;;4591595;19;19921;-23
2023/06/29 07:24:23;;;;;;;;;;;23.50;99.90;;;;;;4591842;19;19919;-29
2023/06/29 07:25:54;;;;;;;;;;;23.40;99.90;;;;;;4590697;19;19915;-25
2023/06/29 07:27:27;;;;;;;;;;;23.40;99.90;;;;;;4591957;19;19945;-22
2023/06/29 07:29:06;;;;;;;;;;;23.40;99.90;;;;;;4591905;19;19914;-22
2023/06/29 07:43:11;;;;;;;;;;;23.50;99.90;;;;;;4592428;19;19910;-23
2023/06/29 07:44:44;;;;;;;;;;;23.50;99.90;;;;;;4591192;19;19930;-23
2023/06/29 07:46:15;;;;;;;;;;;23.50;99.90;;;;;;4591975;19;19915;-24
2023/06/29 07:47:46;;;;;;;;;;;23.50;99.90;;;;;;4590121;19;19917;-23
2023/06/29 07:49:17;;;;;;;;;;;23.50;99.90;;;;;;4590650;19;19998;-25
2023/06/29 07:50:49;;;;;;;;;;;23.50;99.90;;;;;;4592841;19;19925;-28
2023/06/29 07:52:20;;;;;;;;;;;23.50;99.90;;;;;;4590807;19;20258;-29
2023/06/29 07:53:52;;;;;;;;;;;23.50;99.90;;;;;;4591069;19;19915;-23
2023/06/29 07:55:23;;;;;;;;;;;23.50;99.90;;;;;;4591573;19;19911;-24
2023/06/29 07:56:54;;;;;;;;;;;23.50;99.90;;;;;;4590654;19;19919;-23
2023/06/29 07:58:28;;;;;;;;;;;23.50;99.90;;;;;;4590830;19;19930;-27
2023/06/29 07:59:59;;;;;;;;;;;23.50;99.90;;;;;;4591307;19;19921;-26
2023/06/29 08:01:30;;;;;;;;;;;23.50;99.90;;;;;;4591307;19;19926;-22
2023/06/29 08:03:01;;;;;;;;;;;23.50;99.90;;;;;;4591778;19;19982;-21
2023/06/29 08:04:33;;;;;;;;;;;23.50;99.90;;;;;;4590933;19;20229;-22
2023/06/29 08:06:04;;;;;;;;;;;23.50;99.90;;;;;;4590944;19;20356;-26
2023/06/29 08:07:36;;;;;;;;;;;23.50;99.90;;;;;;4591686;19;20217;-22
2023/06/29 08:09:06;;;;;;;;;;;23.50;99.90;;;;;;4591155;19;19947;-23
2023/06/29 08:10:38;;;;;;;;;;;23.50;99.90;;;;;;4590762;19;20245;-23
2023/06/29 08:12:09;;;;;;;;;;;23.50;99.90;;;;;;4591255;19;19933;-23
2023/06/29 08:13:40;;;;;;;;;;;23.50;99.90;;;;;;4590642;19;19947;-24
2023/06/29 08:15:11;;;;;;;;;;;23.50;99.90;;;;;;4590118;19;19919;-24
2023/06/29 08:16:43;;;;;;;;;;;23.50;99.90;;;;;;4589793;19;19922;-25
2023/06/29 08:18:14;;;;;;;;;;;23.50;99.90;;;;;;4590690;19;19914;-24
2023/06/29 08:19:45;;;;;;;;;;;23.50;99.90;;;;;;4591535;19;20407;-24
2023/06/29 08:21:16;;;;;;;;;;;23.50;99.90;;;;;;4589618;19;19922;-27
2023/06/29 08:22:48;;;;;;;;;;;23.50;99.90;;;;;;4589776;19;19921;-25
2023/06/29 08:24:19;;;;;;;;;;;23.50;99.90;;;;;;4589639;19;19926;-22
2023/06/29 08:25:50;;;;;;;;;;;23.50;99.90;;;;;;4590484;19;19914;-22
2023/06/29 08:27:21;;;;;;;;;;;23.40;99.90;;;;;;4589499;19;19919;-22
2023/06/29 08:28:52;;;;;;;;;;;23.40;99.90;;;;;;4590348;19;19921;-26
2023/06/29 08:30:24;;;;;;;;;;;23.40;99.90;;;;;;4591217;19;20277;-23
2023/06/29 08:31:55;;;;;;;;;;;23.40;99.90;;;;;;4590379;19;19914;-23
2023/06/29 08:40:37;;;;;;;;;;;23.40;99.90;;;;;;4596944;19;19910;-22
2023/06/29 08:42:08;;;;;;;;;;;23.40;99.90;;;;;;4593706;19;20259;-26
2023/06/29 08:43:40;;;;;;;;;;;23.40;99.90;;;;;;4595019;19;19923;-25
2023/06/29 08:45:11;;;;;;;;;;;23.40;99.90;;;;;;4594001;19;19966;-26
2023/06/29 08:46:43;;;;;;;;;;;23.40;99.90;;;;;;4595216;19;19919;-24
2023/06/29 08:53:38;;;;;;;;;;;23.40;99.90;;;;;;4596754;19;20344;-23
2023/06/29 08:55:09;;;;;;;;;;;23.40;99.90;;;;;;4593830;19;19930;-24
2023/06/29 08:56:42;;;;;;;;;;;23.40;99.90;;;;;;4591563;19;19911;-23
2023/06/29 08:58:12;;;;;;;;;;;23.40;99.90;;;;;;4594359;19;19989;-24
2023/06/29 08:59:44;;;;;;;;;;;23.50;99.90;;;;;;4593947;19;20332;-23
2023/06/29 09:01:16;;;;;;;;;;;23.40;99.90;;;;;;4594525;19;19911;-22
2023/06/29 09:02:49;;;;;;;;;;;23.40;99.90;;;;;;4594267;19;19911;-23
2023/06/29 09:04:20;;;;;;;;;;;23.40;99.90;;;;;;4593432;19;20256;-26
2023/06/29 09:05:55;;;;;;;;;;;23.40;99.90;;;;;;4594004;19;19932;-29
2023/06/29 09:07:27;;;;;;;;;;;23.40;99.90;;;;;;4595175;19;19915;-24
2023/06/29 09:08:58;;;;;;;;;;;23.50;99.90;;;;;;4594626;19;20336;-23
2023/06/29 09:10:29;;;;;;;;;;;23.50;99.90;;;;;;4594667;19;19927;-24
2023/06/29 09:12:01;;;;;;;;;;;23.60;99.90;;;;;;4593925;19;19914;-24
2023/06/29 09:13:36;;;;;;;;;;;23.70;99.90;;;;;;4593851;19;19919;-28
2023/06/29 09:15:09;;;;;;;;;;;23.70;99.90;;;;;;4593321;19;20089;-23
2023/06/29 09:20:39;;;;;;;;;;;24.10;99.90;;;;;;4594118;19;19929;-24
2023/06/29 09:22:10;;;;;;;;;;;24.20;99.90;;;;;;4595243;19;19945;-24
2023/06/29 09:23:42;;;;;;;;;;;24.30;99.90;;;;;;4593660;19;19915;-24
2023/06/29 09:25:15;;;;;;;;;;;24.40;99.90;;;;;;4593225;19;19918;-24
2023/06/29 09:26:49;;;;;;;;;;;24.40;99.90;;;;;;4592779;19;20241;-22
2023/06/29 09:28:25;;;;;;;;;;;24.50;99.90;;;;;;4592981;19;20252;-24
2023/06/29 09:29:57;;;;;;;;;;;24.50;99.90;;;;;;4592960;19;19911;-22
2023/06/29 09:31:28;;;;;;;;;;;24.50;99.90;;;;;;4593840;19;19919;-27
2023/06/29 09:33:07;;;;;;;;;;;24.60;99.90;;;;;;4592868;19;19942;-30
2023/06/29 09:34:39;;;;;;;;;;;24.60;99.90;;;;;;4593539;19;19914;-24
2023/06/29 09:36:12;;;;;;;;;;;24.60;99.90;;;;;;4591948;19;20288;-28
2023/06/29 09:37:43;;;;;;;;;;;24.60;99.90;;;;;;4593963;19;19932;-24
2023/06/29 09:39:17;;;;;;;;;;;24.60;99.90;;;;;;4594591;19;20316;-24
2023/06/29 09:40:52;;;;;;;;;;;24.60;99.90;;;;;;4592937;19;19926;-24
2023/06/29 09:42:23;;;;;;;;;;;24.60;99.90;;;;;;4593542;19;19926;-24
2023/06/29 09:43:55;;;;;;;;;;;24.60;99.90;;;;;;4594306;19;20325;-22
2023/06/29 09:45:27;;;;;;;;;;;24.50;99.90;;;;;;4594347;19;20312;-24
2023/06/29 09:47:04;;;;;;;;;;;24.60;99.90;;;;;;4590520;19;20076;-22
2023/06/29 09:48:45;;;;;;;;;;;24.50;99.90;;;;;;4593224;19;19915;-23
2023/06/29 09:50:19;;;;;;;;;;;24.50;99.90;;;;;;4593735;19;19923;-23
2023/06/29 09:51:51;;;;;;;;;;;24.50;99.90;;;;;;4594596;19;19915;-23
2023/06/29 09:53:27;;;;;;;;;;;24.50;99.90;;;;;;4592705;19;19914;-23
2023/06/29 09:54:58;;;;;;;;;;;24.50;99.90;;;;;;4593058;19;20290;-24